Terminal Aerodrome Forecast
Issued by NWS

Home | Current Version | Previous Version | Text Only | Print | Product List | Glossary Off
Versions: 1 2 3 4 5 6 7 8 9 10 11 12 13 14 15 16 17 18

523
FTUS43 KOAX 281132
TAFCDR
TAF
KCDR 281132Z 2812/2912 02007KT P6SM VCTS SCT050CB BKN080
      TEMPO 2812/2815 VRB15G25KT 4SM TSRA BKN030CB
     FM281600 09008KT P6SM BKN100
     FM282100 08008KT P6SM VCTS BKN050CB BKN100=

USA.gov is the U.S. government's official web portal to all federal, state and local government web resources and services.